METAR Data
IDs: Format: Raw Decoded Include TAF

Data at: 2146 UTC 26 May 2019

METAR for:KCMH (Columbus Intl, OH, US)
Text:KCMH 262051Z 32009KT 10SM SCT055 BKN250 28/17 A2998 RMK AO2 SLP144 T02830167 56019
Temperature: 28.3°C ( 83°F)
Dewpoint: 16.7°C ( 62°F) [RH = 49%]
Pressure (altimeter):29.98 inches Hg (1015.3 mb) [Sea level pressure: 1014.4 mb]
Winds:from the NW (320 degrees) at 10 MPH (9 knots; 4.6 m/s)
Visibility:10 or more sm (16+ km)
Ceiling:25000 feet AGL
Clouds: scattered clouds at 5500 feet AGL, broken clouds at 25000 feet AGL